Hauptseite
METAR-TAF:

METAR-TAF

Flughäfen :

RAF Linton-on-Ouse

Linton-on-Ouse, England

Breite: 54-03N, Länge: 001-15W, Höhe: 16 m

Beobachtung

Neuester Wetterbericht von vor 1 Stunde und 4 Minuten, um 12:50 UTC
Wind 6 kt aus Nord
Temperatur 20°C
Luftfeuchtigkeit 30%
Luftdruck 1036 hPa
Sichtweite 10 km oder mehr

METAR: EGXU 271250Z AUTO 36006KT 9999 NCD 20/02 Q1036

Zeit: 14:54 (13:54 UTC)


TAF: fehlend

Wetterbeobachtungen und Prognosen von mehr als 4000 Flughäfen (METAR und TAF Bericht).

Die verfügbaren Stationen werden durch gelbe und rote Markierungen auf der Karte dargestellt.

Führen Sie die Maus auf sie, um den Namen der Station zu sehen.

Darauf klicken, um die Beobachtung von Wetterbeobachtungen und Prognosen zu sehen.

Um die Karte zu ändern : klicken Sie auf den grünen Tasten mit einem schwarzen Kreuz Zum Vergrößern, auf den grünen Button mit einem Gedankenstrich zu verkleinern, oder auf die grünen Pfeile für benachbarte Karten.


METAR-TAF: